createdAt,value
2022-12-26T00:02:49.277Z,85.34
2022-12-26T00:07:53.867Z,85.85
2022-12-26T00:13:37.046Z,85.44
2022-12-26T00:18:21.531Z,85.31
2022-12-26T00:23:25.032Z,85.52
2022-12-26T00:28:28.543Z,85.12
2022-12-26T00:33:32.235Z,84.97
2022-12-26T00:38:37.363Z,85.68
2022-12-26T00:43:41.763Z,85.62
2022-12-26T00:48:45.716Z,85.60
2022-12-26T00:53:50.386Z,84.99
2022-12-26T00:58:53.920Z,85.26
2022-12-26T01:03:58.623Z,85.74
2022-12-26T01:09:02.487Z,85.94
2022-12-26T01:14:14.139Z,85.91
2022-12-26T01:19:17.811Z,86.33
2022-12-26T01:24:21.619Z,86.38
2022-12-26T01:29:25.051Z,86.00
2022-12-26T01:34:28.787Z,86.22
2022-12-26T01:39:33.601Z,85.53
2022-12-26T01:45:18.373Z,85.64
2022-12-26T01:50:41.429Z,85.61
2022-12-26T01:55:50.109Z,85.75
2022-12-26T02:00:53.991Z,86.42
2022-12-26T02:06:01.108Z,85.72
2022-12-26T02:11:31.923Z,86.20
2022-12-26T02:16:39.203Z,86.80
2022-12-26T02:22:28.727Z,86.36
2022-12-26T02:27:51.099Z,86.26
2022-12-26T02:33:19.487Z,86.23
2022-12-26T02:38:43.738Z,85.18
2022-12-26T02:44:48.832Z,85.65
2022-12-26T02:50:17.445Z,86.28
2022-12-26T02:55:26.749Z,85.66
2022-12-26T03:00:34.360Z,85.83
2022-12-26T03:05:44.580Z,86.55
2022-12-26T03:10:50.428Z,86.79
2022-12-26T03:15:58.574Z,86.26
2022-12-26T03:21:04.204Z,86.50
2022-12-26T03:26:21.700Z,86.72
2022-12-26T03:31:26.785Z,86.84
2022-12-26T03:36:30.224Z,86.58
2022-12-26T03:41:40.748Z,86.75
2022-12-26T03:47:05.543Z,86.77
2022-12-26T03:52:29.074Z,87.11
2022-12-26T03:57:41.617Z,86.58
2022-12-26T04:02:48.628Z,87.52
2022-12-26T04:07:58.486Z,87.05
2022-12-26T04:13:06.784Z,87.29
2022-12-26T04:18:16.229Z,87.04
2022-12-26T04:23:47.645Z,87.25
2022-12-26T04:28:51.222Z,86.95
2022-12-26T04:34:02.760Z,87.85
2022-12-26T04:39:10.575Z,87.48
2022-12-26T04:44:17.267Z,88.23
2022-12-26T04:49:21.838Z,87.72
2022-12-26T04:54:26.044Z,87.86
2022-12-26T04:59:30.108Z,88.13
2022-12-26T05:04:33.756Z,88.33
2022-12-26T05:09:37.317Z,88.66
2022-12-26T05:14:40.669Z,88.50
2022-12-26T05:19:44.651Z,88.21
2022-12-26T05:24:48.580Z,87.82
2022-12-26T05:29:52.166Z,87.78
2022-12-26T05:34:55.751Z,87.83
2022-12-26T05:39:59.214Z,88.57
2022-12-26T05:45:02.875Z,87.79
2022-12-26T05:50:07.781Z,87.88
2022-12-26T05:55:12.424Z,87.77
2022-12-26T06:00:16.672Z,87.62
2022-12-26T06:05:20.211Z,87.78
2022-12-26T06:12:27.854Z,88.79
2022-12-26T06:17:32.088Z,88.42
2022-12-26T06:22:37.325Z,88.72
2022-12-26T06:27:43.676Z,88.85
2022-12-26T06:32:47.322Z,88.29
2022-12-26T06:37:51.044Z,88.64
2022-12-26T06:42:54.456Z,88.41
2022-12-26T06:47:57.693Z,88.85
2022-12-26T06:53:02.332Z,88.56
2022-12-26T06:58:05.949Z,88.57
2022-12-26T07:03:09.582Z,88.71
2022-12-26T07:08:13.405Z,88.75
2022-12-26T07:13:16.934Z,88.88
2022-12-26T07:18:20.563Z,89.09
2022-12-26T07:23:24.772Z,89.08
2022-12-26T07:28:29.311Z,88.97
2022-12-26T07:33:33.661Z,89.02
2022-12-26T07:38:37.212Z,88.85
2022-12-26T07:43:40.610Z,89.98
2022-12-26T07:48:43.896Z,89.62
2022-12-26T07:53:47.579Z,89.63
2022-12-26T07:58:52.251Z,89.14
2022-12-26T08:03:55.543Z,89.18
2022-12-26T08:08:59.573Z,89.66
2022-12-26T08:14:04.863Z,90.23
2022-12-26T08:19:08.275Z,89.63
2022-12-26T08:24:11.731Z,89.95
2022-12-26T08:29:15.515Z,90.40
2022-12-26T08:34:19.350Z,90.43
2022-12-26T08:39:22.881Z,90.19
2022-12-26T08:44:28.470Z,89.86
2022-12-26T08:49:32.457Z,89.93
2022-12-26T08:54:36.155Z,89.37
2022-12-26T08:59:40.061Z,88.82
2022-12-26T09:04:44.529Z,89.20
2022-12-26T09:09:48.676Z,88.97
2022-12-26T09:14:51.992Z,88.36
2022-12-26T09:19:55.508Z,88.83
2022-12-26T09:25:00.245Z,89.19
2022-12-26T09:30:04.106Z,88.97
2022-12-26T09:35:08.293Z,89.05
2022-12-26T09:40:24.673Z,89.42
2022-12-26T09:45:42.856Z,89.49
2022-12-26T09:50:50.767Z,89.63
2022-12-26T09:56:02.326Z,89.28
2022-12-26T10:01:17.591Z,89.80
2022-12-26T10:06:26.285Z,89.60
2022-12-26T10:11:41.942Z,89.84
2022-12-26T10:16:57.501Z,89.63
2022-12-26T10:22:19.564Z,88.99
2022-12-26T10:27:27.385Z,88.91
2022-12-26T10:32:51.444Z,89.26
2022-12-26T10:37:58.464Z,88.74
2022-12-26T10:43:34.368Z,88.27
2022-12-26T10:48:37.739Z,88.55
2022-12-26T10:53:44.658Z,88.61
2022-12-26T10:58:59.399Z,88.61
2022-12-26T11:04:06.458Z,88.30
2022-12-26T11:09:40.527Z,88.10
2022-12-26T11:14:45.147Z,88.22
2022-12-26T11:19:48.805Z,88.51
2022-12-26T11:25:23.630Z,88.76
2022-12-26T11:30:33.666Z,89.65
2022-12-26T11:35:45.635Z,90.33
2022-12-26T11:40:49.773Z,91.15
2022-12-26T11:45:55.018Z,91.33
2022-12-26T11:50:58.510Z,91.01
2022-12-26T11:56:07.200Z,90.83
2022-12-26T12:01:16.465Z,91.12
2022-12-26T12:06:37.840Z,90.42
2022-12-26T12:11:56.815Z,90.71
2022-12-26T12:17:25.051Z,91.31
2022-12-26T12:23:10.463Z,90.60
2022-12-26T12:28:38.713Z,91.06
2022-12-26T12:34:12.437Z,90.10
2022-12-26T12:39:55.121Z,90.30
2022-12-26T12:45:23.398Z,90.40
2022-12-26T12:50:42.737Z,91.65
2022-12-26T12:56:04.082Z,92.04
2022-12-26T13:01:14.575Z,92.42
2022-12-26T13:06:36.310Z,92.08
2022-12-26T13:11:53.931Z,92.28
2022-12-26T13:17:26.953Z,91.25
2022-12-26T13:22:38.367Z,91.24
2022-12-26T13:27:42.736Z,91.39
2022-12-26T13:32:46.911Z,90.74
2022-12-26T13:37:58.715Z,91.02
2022-12-26T13:43:20.713Z,90.97
2022-12-26T13:48:27.522Z,90.80
2022-12-26T13:53:36.056Z,91.28
2022-12-26T13:59:09.577Z,90.93
2022-12-26T14:04:50.119Z,91.35
2022-12-26T14:09:53.646Z,91.14
2022-12-26T14:15:06.900Z,91.80
2022-12-26T14:20:39.796Z,92.13
2022-12-26T14:26:25.092Z,91.87
2022-12-26T14:31:59.434Z,91.81
2022-12-26T14:37:10.215Z,92.04
2022-12-26T14:42:24.943Z,91.43
2022-12-26T14:47:49.381Z,92.30
2022-12-26T14:52:53.649Z,91.97
2022-12-26T14:57:57.866Z,91.83
2022-12-26T15:03:01.277Z,91.38
2022-12-26T15:08:32.161Z,92.59
2022-12-26T15:13:58.281Z,92.79
2022-12-26T15:19:33.925Z,93.31
2022-12-26T15:25:18.845Z,92.96
2022-12-26T15:30:45.252Z,92.11
2022-12-26T15:36:03.909Z,92.17
2022-12-26T15:41:19.407Z,91.90
2022-12-26T15:46:33.560Z,91.86
2022-12-26T15:51:56.258Z,91.75
2022-12-26T15:56:59.564Z,91.80
2022-12-26T16:02:03.092Z,91.50
2022-12-26T16:07:23.318Z,91.57
2022-12-26T16:12:33.441Z,92.13
2022-12-26T16:17:38.578Z,92.39
2022-12-26T16:22:44.098Z,92.45
2022-12-26T16:27:51.213Z,92.87
2022-12-26T16:32:55.581Z,93.14
2022-12-26T16:38:02.902Z,92.40
2022-12-26T16:43:19.558Z,92.16
2022-12-26T16:48:27.668Z,92.96
2022-12-26T16:53:37.394Z,92.73
2022-12-26T16:58:41.282Z,92.80
2022-12-26T17:04:00.226Z,93.12
2022-12-26T17:09:16.900Z,92.55
2022-12-26T17:14:26.077Z,92.73
2022-12-26T17:19:32.304Z,92.13
2022-12-26T17:24:37.466Z,92.65
2022-12-26T17:29:53.859Z,92.37
2022-12-26T17:35:06.451Z,93.28
2022-12-26T17:40:15.919Z,93.25
2022-12-26T17:45:26.216Z,93.14
2022-12-26T17:50:37.551Z,93.49
2022-12-26T17:55:41.925Z,93.38
2022-12-26T18:00:48.067Z,92.21
2022-12-26T18:05:53.202Z,93.32
2022-12-26T18:11:08.600Z,92.33
2022-12-26T18:16:17.328Z,92.99
2022-12-26T18:21:20.660Z,93.45
2022-12-26T18:26:29.743Z,92.33
2022-12-26T18:31:34.382Z,94.47
2022-12-26T18:36:39.121Z,94.93
2022-12-26T18:41:43.406Z,94.56
2022-12-26T18:46:47.817Z,94.26
2022-12-26T18:51:51.311Z,94.43
2022-12-26T18:56:54.713Z,94.04
2022-12-26T19:02:02.068Z,94.06
2022-12-26T19:07:05.656Z,94.44
2022-12-26T19:12:11.045Z,94.13
2022-12-26T19:17:15.178Z,93.70
2022-12-26T19:22:18.651Z,93.45
2022-12-26T19:27:22.119Z,94.09
2022-12-26T19:32:26.657Z,93.21
2022-12-26T19:37:30.417Z,93.30
2022-12-26T19:42:33.871Z,93.86
2022-12-26T19:47:37.909Z,92.98
2022-12-26T19:52:41.507Z,93.19
2022-12-26T19:57:45.423Z,93.70
2022-12-26T20:02:50.351Z,93.98
2022-12-26T20:07:58.434Z,93.47
2022-12-26T20:13:02.208Z,93.46
2022-12-26T20:18:10.900Z,93.91
2022-12-26T20:23:18.090Z,93.24
2022-12-26T20:28:21.816Z,93.20
2022-12-26T20:33:27.052Z,94.08
2022-12-26T20:38:31.350Z,93.60
2022-12-26T20:43:36.039Z,93.29
2022-12-26T20:48:39.769Z,93.60
2022-12-26T20:53:43.211Z,92.40
2022-12-26T20:58:47.302Z,92.92
2022-12-26T21:03:53.384Z,92.06
2022-12-26T21:08:57.434Z,92.37
2022-12-26T21:14:05.231Z,92.09
2022-12-26T21:19:14.725Z,92.36
2022-12-26T21:24:23.120Z,91.62
2022-12-26T21:29:31.220Z,91.76
2022-12-26T21:34:35.460Z,91.54
2022-12-26T21:39:44.508Z,91.40
2022-12-26T21:44:48.266Z,90.80
2022-12-26T21:49:52.881Z,90.00
2022-12-26T21:54:56.439Z,89.69
2022-12-26T22:00:00.111Z,89.23
2022-12-26T22:05:07.006Z,88.72
2022-12-26T22:10:11.981Z,88.57
2022-12-26T22:15:16.789Z,88.18
2022-12-26T22:20:22.183Z,87.73
2022-12-26T22:25:25.657Z,87.27
2022-12-26T22:30:29.172Z,86.29
2022-12-26T22:35:33.409Z,86.61
2022-12-26T22:40:37.389Z,86.33
2022-12-26T22:45:41.385Z,85.82
2022-12-26T22:50:46.823Z,86.15
2022-12-26T22:55:52.469Z,84.88
2022-12-26T23:00:56.577Z,84.54
2022-12-26T23:06:00.209Z,84.80
2022-12-26T23:11:04.070Z,83.85
2022-12-26T23:16:14.297Z,84.62
2022-12-26T23:21:31.210Z,84.43
2022-12-26T23:26:35.616Z,83.84
2022-12-26T23:31:39.151Z,83.93
2022-12-26T23:36:42.600Z,84.06
2022-12-26T23:41:46.652Z,83.68
2022-12-26T23:46:52.309Z,83.49
2022-12-26T23:51:57.768Z,83.42
2022-12-26T23:57:01.585Z,83.24
